createdAt,value
2022-09-27T00:02:31.633Z,21.10
2022-09-27T00:05:33.409Z,21.10
2022-09-27T00:08:37.211Z,21.10
2022-09-27T00:11:42.586Z,21.10
2022-09-27T00:14:44.368Z,21.10
2022-09-27T00:17:46.217Z,21.10
2022-09-27T00:20:47.955Z,21.10
2022-09-27T00:23:49.719Z,21.10
2022-09-27T00:26:51.570Z,21.10
2022-09-27T00:29:53.701Z,21.10
2022-09-27T00:32:55.681Z,21.10
2022-09-27T00:36:04.732Z,21.10
2022-09-27T00:39:06.556Z,21.10
2022-09-27T00:42:12.738Z,21.10
2022-09-27T00:45:17.813Z,21.10
2022-09-27T00:48:24.511Z,21.10
2022-09-27T00:51:27.031Z,21.00
2022-09-27T00:54:30.755Z,21.10
2022-09-27T00:57:33.119Z,21.10
2022-09-27T01:00:38.004Z,21.00
2022-09-27T01:03:54.933Z,21.10
2022-09-27T01:06:56.872Z,21.10
2022-09-27T01:09:59.042Z,21.10
2022-09-27T01:13:09.954Z,21.10
2022-09-27T01:16:30.051Z,21.10
2022-09-27T01:20:07.253Z,21.00
2022-09-27T01:23:37.135Z,21.10
2022-09-27T01:26:53.920Z,21.10
2022-09-27T01:29:58.679Z,21.00
2022-09-27T01:33:29.983Z,21.00
2022-09-27T01:36:37.475Z,21.00
2022-09-27T01:40:00.124Z,21.00
2022-09-27T01:43:12.115Z,21.10
2022-09-27T01:46:23.683Z,21.00
2022-09-27T01:50:02.607Z,21.00
2022-09-27T01:53:16.081Z,21.00
2022-09-27T01:56:52.245Z,21.00
2022-09-27T02:00:07.826Z,21.00
2022-09-27T02:03:21.698Z,21.00
2022-09-27T02:06:48.002Z,21.00
2022-09-27T02:10:10.499Z,21.00
2022-09-27T02:13:38.121Z,20.90
2022-09-27T02:17:09.184Z,20.90
2022-09-27T02:20:20.343Z,21.00
2022-09-27T02:23:41.468Z,21.00
2022-09-27T02:26:55.148Z,21.00
2022-09-27T02:30:08.608Z,21.00
2022-09-27T02:33:11.832Z,21.00
2022-09-27T02:36:14.110Z,21.00
2022-09-27T02:39:18.061Z,20.90
2022-09-27T02:42:19.960Z,21.00
2022-09-27T02:45:22.216Z,20.90
2022-09-27T02:48:42.728Z,20.90
2022-09-27T02:52:17.490Z,20.90
2022-09-27T02:55:49.627Z,20.90
2022-09-27T02:59:22.176Z,20.90
2022-09-27T03:02:51.238Z,20.90
2022-09-27T03:06:13.645Z,20.90
2022-09-27T03:09:19.548Z,20.90
2022-09-27T03:12:28.070Z,20.90
2022-09-27T03:15:29.947Z,20.90
2022-09-27T03:18:37.605Z,20.90
2022-09-27T03:21:57.864Z,20.90
2022-09-27T03:25:00.055Z,20.90
2022-09-27T03:28:02.173Z,20.90
2022-09-27T03:31:04.720Z,20.90
2022-09-27T03:34:30.213Z,20.90
2022-09-27T03:37:32.053Z,20.90
2022-09-27T03:40:34.210Z,20.90
2022-09-27T03:43:36.062Z,20.90
2022-09-27T03:46:39.117Z,20.90
2022-09-27T03:49:41.177Z,20.90
2022-09-27T03:52:43.810Z,20.90
2022-09-27T03:55:46.221Z,20.90
2022-09-27T03:58:48.471Z,20.90
2022-09-27T04:01:50.574Z,20.90
2022-09-27T04:05:12.425Z,20.90
2022-09-27T04:08:14.340Z,20.80
2022-09-27T04:11:17.614Z,20.80
2022-09-27T04:14:21.002Z,20.80
2022-09-27T04:17:43.094Z,20.80
2022-09-27T04:21:07.836Z,20.80
2022-09-27T04:24:12.012Z,20.80
2022-09-27T04:27:17.430Z,20.80
2022-09-27T04:30:19.768Z,20.80
2022-09-27T04:33:30.656Z,20.80
2022-09-27T04:36:42.032Z,20.80
2022-09-27T04:39:49.280Z,20.80
2022-09-27T04:42:51.984Z,20.80
2022-09-27T04:45:53.941Z,20.80
2022-09-27T04:48:55.846Z,20.80
2022-09-27T04:51:57.691Z,20.80
2022-09-27T04:54:59.467Z,20.80
2022-09-27T04:58:01.685Z,20.80
2022-09-27T05:01:04.914Z,20.80
2022-09-27T05:04:25.454Z,20.80
2022-09-27T05:07:29.647Z,20.80
2022-09-27T05:10:37.827Z,20.80
2022-09-27T05:13:39.651Z,20.80
2022-09-27T05:16:41.519Z,20.80
2022-09-27T05:20:10.665Z,20.80
2022-09-27T05:23:17.537Z,20.80
2022-09-27T05:26:19.293Z,20.80
2022-09-27T05:29:21.132Z,20.80
2022-09-27T05:32:43.751Z,20.80
2022-09-27T05:36:02.154Z,20.80
2022-09-27T05:39:07.097Z,20.80
2022-09-27T05:42:10.364Z,20.80
2022-09-27T05:45:12.649Z,20.80
2022-09-27T05:48:14.683Z,20.80
2022-09-27T05:51:36.749Z,20.80
2022-09-27T05:54:39.405Z,20.80
2022-09-27T05:57:41.238Z,20.80
2022-09-27T06:00:44.058Z,20.80
2022-09-27T06:04:05.912Z,20.80
2022-09-27T06:07:29.582Z,20.80
2022-09-27T06:10:32.503Z,20.70
2022-09-27T06:13:36.461Z,20.80
2022-09-27T06:16:38.743Z,20.70
2022-09-27T06:19:41.037Z,20.80
2022-09-27T06:22:43.218Z,20.80
2022-09-27T06:25:46.872Z,20.80
2022-09-27T06:28:54.855Z,20.80
2022-09-27T06:31:57.902Z,20.80
2022-09-27T06:35:25.622Z,20.80
2022-09-27T06:38:27.493Z,20.70
2022-09-27T06:41:52.859Z,20.80
2022-09-27T06:45:20.760Z,20.70
2022-09-27T06:48:40.936Z,20.70
2022-09-27T06:51:50.634Z,20.70
2022-09-27T06:54:52.464Z,20.70
2022-09-27T06:58:31.869Z,20.70
2022-09-27T07:02:00.547Z,20.70
2022-09-27T07:05:25.853Z,20.70
2022-09-27T07:08:38.592Z,20.70
2022-09-27T07:11:41.460Z,20.70
2022-09-27T07:14:43.230Z,20.70
2022-09-27T07:17:58.261Z,20.70
2022-09-27T07:21:01.768Z,20.70
2022-09-27T07:24:05.030Z,20.70
2022-09-27T07:27:08.588Z,20.70
2022-09-27T07:30:11.998Z,20.70
2022-09-27T07:33:13.998Z,20.70
2022-09-27T07:36:16.133Z,20.70
2022-09-27T07:39:21.974Z,20.70
2022-09-27T07:42:24.090Z,20.70
2022-09-27T07:45:28.111Z,20.70
2022-09-27T07:48:56.513Z,20.70
2022-09-27T07:52:24.895Z,20.70
2022-09-27T07:56:05.019Z,20.70
2022-09-27T07:59:08.349Z,20.70
2022-09-27T08:02:15.229Z,20.60
2022-09-27T08:05:18.065Z,20.60
2022-09-27T08:08:19.901Z,20.60
2022-09-27T08:11:24.134Z,20.60
2022-09-27T08:14:26.049Z,20.60
2022-09-27T08:17:28.793Z,20.70
2022-09-27T08:21:00.612Z,20.70
2022-09-27T08:24:12.902Z,20.60
2022-09-27T08:27:33.326Z,20.70
2022-09-27T08:30:38.411Z,20.70
2022-09-27T08:33:41.920Z,20.70
2022-09-27T08:36:44.856Z,20.70
2022-09-27T08:39:48.100Z,20.70
2022-09-27T08:43:17.800Z,20.70
2022-09-27T08:46:44.113Z,20.60
2022-09-27T08:49:51.338Z,20.60
2022-09-27T08:53:22.609Z,20.70
2022-09-27T08:56:24.718Z,20.60
2022-09-27T08:59:30.691Z,20.60
2022-09-27T09:02:32.963Z,20.60
2022-09-27T09:05:35.594Z,20.70
2022-09-27T09:09:15.075Z,20.60
2022-09-27T09:12:51.991Z,20.60
2022-09-27T09:16:13.884Z,20.60
2022-09-27T09:19:32.828Z,20.60
2022-09-27T09:23:08.361Z,20.60
2022-09-27T09:26:28.032Z,20.60
2022-09-27T09:29:39.146Z,20.60
2022-09-27T09:33:24.589Z,20.60
2022-09-27T09:36:47.207Z,20.60
2022-09-27T09:39:57.014Z,20.60
2022-09-27T09:43:16.821Z,20.60
2022-09-27T09:46:36.733Z,20.60
2022-09-27T09:49:44.593Z,20.60
2022-09-27T09:52:59.396Z,20.60
2022-09-27T09:56:12.529Z,20.60
2022-09-27T09:59:26.703Z,20.60
2022-09-27T10:02:35.664Z,20.60
2022-09-27T10:05:45.370Z,20.60
2022-09-27T10:08:47.524Z,20.60
2022-09-27T10:12:15.644Z,20.70
2022-09-27T10:15:24.852Z,20.70
2022-09-27T10:18:28.301Z,20.70
2022-09-27T10:21:30.847Z,20.70
2022-09-27T10:25:01.760Z,20.80
2022-09-27T10:28:38.026Z,20.80
2022-09-27T10:31:45.989Z,20.90
2022-09-27T10:34:51.630Z,20.90
2022-09-27T10:37:54.950Z,20.90
2022-09-27T10:41:41.422Z,21.00
2022-09-27T10:44:52.764Z,20.90
2022-09-27T10:48:22.794Z,21.00
2022-09-27T10:51:31.527Z,21.00
2022-09-27T10:54:39.688Z,21.10
2022-09-27T10:57:48.308Z,21.10
2022-09-27T11:01:08.266Z,21.10
2022-09-27T11:04:38.584Z,21.10
2022-09-27T11:07:55.025Z,21.10
2022-09-27T11:11:06.682Z,21.10
2022-09-27T11:14:25.154Z,21.10
2022-09-27T11:17:47.415Z,21.10
2022-09-27T11:21:27.086Z,21.10
2022-09-27T11:24:54.662Z,21.10
2022-09-27T11:28:02.410Z,21.00
2022-09-27T11:31:48.519Z,21.00
2022-09-27T11:35:06.448Z,21.00
2022-09-27T11:38:52.876Z,21.00
2022-09-27T11:42:28.360Z,21.00
2022-09-27T11:49:58.489Z,21.00
2022-09-27T11:53:26.590Z,21.00
2022-09-27T11:57:12.747Z,21.10
2022-09-27T12:00:17.940Z,21.00
2022-09-27T12:03:26.677Z,21.00
2022-09-27T12:06:50.378Z,21.10
2022-09-27T12:10:01.218Z,21.10
2022-09-27T12:13:04.764Z,21.10
2022-09-27T12:16:08.060Z,21.10
2022-09-27T12:19:28.675Z,21.10
2022-09-27T12:23:00.881Z,21.10
2022-09-27T12:26:24.011Z,21.10
2022-09-27T12:29:31.580Z,21.10
2022-09-27T12:32:38.597Z,21.10
2022-09-27T12:35:47.759Z,21.20
2022-09-27T12:39:01.966Z,21.20
2022-09-27T12:42:34.366Z,21.10
2022-09-27T12:46:17.863Z,21.10
2022-09-27T12:49:48.119Z,21.10
2022-09-27T12:52:59.296Z,21.10
2022-09-27T12:56:23.328Z,21.10
2022-09-27T12:59:43.920Z,21.10
2022-09-27T13:03:25.057Z,21.10
2022-09-27T13:06:58.318Z,21.10
2022-09-27T13:10:20.680Z,21.10
2022-09-27T13:13:26.310Z,21.10
2022-09-27T13:16:28.748Z,21.10
2022-09-27T13:19:42.474Z,21.10
2022-09-27T13:22:46.004Z,21.10
2022-09-27T13:26:03.881Z,21.10
2022-09-27T13:29:28.510Z,21.10
2022-09-27T13:32:36.965Z,21.10
2022-09-27T13:35:38.843Z,21.10
2022-09-27T13:39:14.098Z,21.10
2022-09-27T13:42:40.926Z,21.10
2022-09-27T13:45:57.020Z,21.20
2022-09-27T13:49:15.497Z,21.30
2022-09-27T13:52:40.034Z,21.30
2022-09-27T13:55:53.873Z,21.40
2022-09-27T13:59:14.791Z,21.40
2022-09-27T14:02:29.035Z,21.40
2022-09-27T14:05:54.592Z,21.40
2022-09-27T14:08:59.657Z,21.40
2022-09-27T14:12:08.754Z,21.50
2022-09-27T14:15:20.782Z,21.50
2022-09-27T14:18:23.404Z,21.60
2022-09-27T14:21:31.031Z,21.60
2022-09-27T14:24:55.893Z,21.60
2022-09-27T14:28:40.114Z,21.60
2022-09-27T14:32:03.291Z,21.60
2022-09-27T14:35:42.270Z,21.60
2022-09-27T14:38:44.138Z,21.70
2022-09-27T14:41:58.862Z,21.70
2022-09-27T14:45:25.538Z,21.70
2022-09-27T14:48:28.862Z,21.80
2022-09-27T14:51:32.543Z,21.80
2022-09-27T14:54:34.254Z,21.80
2022-09-27T14:57:37.193Z,21.80
2022-09-27T15:00:41.327Z,21.80
2022-09-27T15:03:45.259Z,21.80
2022-09-27T15:06:47.843Z,21.80
2022-09-27T15:09:51.053Z,21.70
2022-09-27T15:12:57.768Z,21.80
2022-09-27T15:16:00.716Z,21.70
2022-09-27T15:19:26.962Z,21.70
2022-09-27T15:22:59.169Z,21.80
2022-09-27T15:26:35.856Z,21.70
2022-09-27T15:29:38.023Z,21.70
2022-09-27T15:32:39.805Z,21.80
2022-09-27T15:35:50.504Z,21.80
2022-09-27T15:39:08.532Z,21.80
2022-09-27T15:42:13.323Z,21.80
2022-09-27T15:45:36.371Z,21.80
2022-09-27T15:48:38.082Z,21.80
2022-09-27T15:51:51.825Z,21.80
2022-09-27T15:54:53.518Z,21.80
2022-09-27T15:58:08.264Z,21.80
2022-09-27T16:01:18.682Z,21.80
2022-09-27T16:04:20.417Z,21.80
2022-09-27T16:07:22.603Z,21.90
2022-09-27T16:10:37.609Z,21.90
2022-09-27T16:13:39.348Z,21.90
2022-09-27T16:16:42.876Z,21.90
2022-09-27T16:19:44.581Z,22.00
2022-09-27T16:22:46.288Z,22.00
2022-09-27T16:25:47.997Z,22.00
2022-09-27T16:28:50.372Z,22.00
2022-09-27T16:31:53.553Z,22.00
2022-09-27T16:34:55.486Z,22.00
2022-09-27T16:37:58.343Z,22.00
2022-09-27T16:41:03.642Z,22.00
2022-09-27T16:44:13.436Z,22.00
2022-09-27T16:47:15.206Z,22.00
2022-09-27T16:50:35.492Z,22.00
2022-09-27T16:53:37.173Z,22.00
2022-09-27T16:56:38.881Z,22.10
2022-09-27T16:59:40.587Z,22.10
2022-09-27T17:02:47.031Z,22.10
2022-09-27T17:05:48.848Z,22.10
2022-09-27T17:08:50.808Z,22.10
2022-09-27T17:11:52.819Z,22.10
2022-09-27T17:14:54.511Z,22.10
2022-09-27T17:17:56.260Z,22.10
2022-09-27T17:21:03.355Z,22.10
2022-09-27T17:24:06.009Z,22.10
2022-09-27T17:27:07.882Z,22.10
2022-09-27T17:30:10.025Z,22.10
2022-09-27T17:33:11.793Z,22.10
2022-09-27T17:36:19.159Z,22.10
2022-09-27T17:39:22.302Z,22.10
2022-09-27T17:42:25.258Z,22.10
2022-09-27T17:45:26.955Z,22.10
2022-09-27T17:48:47.154Z,22.20
2022-09-27T17:51:51.233Z,22.20
2022-09-27T17:54:55.532Z,22.20
2022-09-27T17:57:57.280Z,22.20
2022-09-27T18:01:04.149Z,22.30
2022-09-27T18:04:09.735Z,22.30
2022-09-27T18:07:14.670Z,22.30
2022-09-27T18:10:17.640Z,22.30
2022-09-27T18:13:19.521Z,22.30
2022-09-27T18:16:22.154Z,22.40
2022-09-27T18:19:26.985Z,22.40
2022-09-27T18:22:30.943Z,22.40
2022-09-27T18:25:38.991Z,22.40
2022-09-27T18:28:42.196Z,22.40
2022-09-27T18:31:48.503Z,22.40
2022-09-27T18:34:50.741Z,22.40
2022-09-27T18:37:53.131Z,22.40
2022-09-27T18:40:57.596Z,22.40
2022-09-27T18:44:01.731Z,22.40
2022-09-27T18:47:03.716Z,22.30
2022-09-27T18:50:05.820Z,22.30
2022-09-27T18:53:08.824Z,22.30
2022-09-27T18:56:15.784Z,22.30
2022-09-27T18:59:20.630Z,22.40
2022-09-27T19:02:22.324Z,22.40
2022-09-27T19:05:24.216Z,22.30
2022-09-27T19:08:26.767Z,22.30
2022-09-27T19:11:28.915Z,22.40
2022-09-27T19:14:30.690Z,22.30
2022-09-27T19:17:32.427Z,22.30
2022-09-27T19:20:34.522Z,22.30
2022-09-27T19:23:36.636Z,22.30
2022-09-27T19:26:38.605Z,22.40
2022-09-27T19:29:40.504Z,22.30
2022-09-27T19:32:42.211Z,22.30
2022-09-27T19:35:43.962Z,22.30
2022-09-27T19:38:46.826Z,22.30
2022-09-27T19:41:48.600Z,22.30
2022-09-27T19:44:50.275Z,22.30
2022-09-27T19:47:51.955Z,22.30
2022-09-27T19:50:58.485Z,22.30
2022-09-27T19:54:00.265Z,22.30
2022-09-27T19:57:01.926Z,22.30
2022-09-27T20:00:04.755Z,22.30
2022-09-27T20:03:06.524Z,22.30
2022-09-27T20:06:11.099Z,22.30
2022-09-27T20:09:13.157Z,22.30
2022-09-27T20:12:14.886Z,22.30
2022-09-27T20:15:17.744Z,22.30
2022-09-27T20:18:19.437Z,22.20
2022-09-27T20:21:23.083Z,22.30
2022-09-27T20:24:24.780Z,22.20
2022-09-27T20:27:26.452Z,22.20
2022-09-27T20:30:28.291Z,22.20
2022-09-27T20:33:42.474Z,22.20
2022-09-27T20:36:44.634Z,22.20
2022-09-27T20:39:46.296Z,22.20
2022-09-27T20:42:48.211Z,22.20
2022-09-27T20:45:49.996Z,22.20
2022-09-27T20:49:03.289Z,22.20
2022-09-27T20:52:05.012Z,22.20
2022-09-27T20:55:07.212Z,22.20
2022-09-27T20:58:08.929Z,22.20
2022-09-27T21:01:10.773Z,22.20
2022-09-27T21:04:14.727Z,22.20
2022-09-27T21:07:16.547Z,22.20
2022-09-27T21:10:18.214Z,22.20
2022-09-27T21:13:20.736Z,22.20
2022-09-27T21:16:25.019Z,22.10
2022-09-27T21:19:26.798Z,22.10
2022-09-27T21:22:28.622Z,22.10
2022-09-27T21:25:30.312Z,22.10
2022-09-27T21:28:36.811Z,22.10
2022-09-27T21:31:38.638Z,22.10
2022-09-27T21:34:40.398Z,22.10
2022-09-27T21:37:43.874Z,22.10
2022-09-27T21:40:54.762Z,22.10
2022-09-27T21:43:57.310Z,22.10
2022-09-27T21:46:59.038Z,22.10
2022-09-27T21:50:00.774Z,22.10
2022-09-27T21:53:02.445Z,22.10
2022-09-27T21:56:05.358Z,22.10
2022-09-27T21:59:10.229Z,22.10
2022-09-27T22:02:12.080Z,22.10
2022-09-27T22:05:13.886Z,22.10
2022-09-27T22:08:19.506Z,22.10
2022-09-27T22:11:25.462Z,22.00
2022-09-27T22:14:27.154Z,22.10
2022-09-27T22:17:28.835Z,22.00
2022-09-27T22:20:32.255Z,22.00
2022-09-27T22:23:34.694Z,22.00
2022-09-27T22:26:38.565Z,22.00
2022-09-27T22:29:40.245Z,22.00
2022-09-27T22:32:45.654Z,22.00
2022-09-27T22:35:48.358Z,22.00
2022-09-27T22:38:51.215Z,21.90
2022-09-27T22:41:52.918Z,21.90
2022-09-27T22:44:54.597Z,21.90
2022-09-27T22:47:56.274Z,21.90
2022-09-27T22:50:59.038Z,21.90
2022-09-27T22:54:00.843Z,21.90
2022-09-27T22:57:03.011Z,21.90
2022-09-27T23:00:05.385Z,21.90
2022-09-27T23:03:07.090Z,21.90
2022-09-27T23:06:09.682Z,21.90
2022-09-27T23:09:11.510Z,21.90
2022-09-27T23:12:13.635Z,21.90
2022-09-27T23:15:15.442Z,21.90
2022-09-27T23:18:17.121Z,21.90
2022-09-27T23:21:18.821Z,21.90
2022-09-27T23:24:20.732Z,21.90
2022-09-27T23:27:41.947Z,21.90
2022-09-27T23:30:43.622Z,21.90
2022-09-27T23:33:48.484Z,21.90
2022-09-27T23:36:50.478Z,21.90
2022-09-27T23:39:52.202Z,21.90
2022-09-27T23:42:53.985Z,21.90
2022-09-27T23:45:57.183Z,21.80
2022-09-27T23:48:59.047Z,21.90
2022-09-27T23:52:01.160Z,21.80
2022-09-27T23:55:03.047Z,21.80
2022-09-27T23:58:04.762Z,21.80
